createdAt,value
2017-08-05T00:00:01.536Z,17.89
2017-08-05T00:01:01.540Z,17.88
2017-08-05T00:02:01.543Z,17.86
2017-08-05T00:03:01.548Z,17.84
2017-08-05T00:04:01.549Z,17.82
2017-08-05T00:05:01.554Z,17.83
2017-08-05T00:06:01.560Z,17.82
2017-08-05T00:07:01.558Z,17.82
2017-08-05T00:08:01.560Z,17.79
2017-08-05T00:09:01.563Z,17.76
2017-08-05T00:10:01.565Z,17.72
2017-08-05T00:11:01.572Z,17.72
2017-08-05T00:12:01.572Z,17.73
2017-08-05T00:13:01.578Z,17.75
2017-08-05T00:14:01.577Z,17.77
2017-08-05T00:15:01.603Z,17.79
2017-08-05T00:16:01.582Z,17.80
2017-08-05T00:17:01.589Z,17.82
2017-08-05T00:18:01.587Z,17.83
2017-08-05T00:19:01.594Z,17.85
2017-08-05T00:20:01.597Z,17.85
2017-08-05T00:21:01.599Z,17.86
2017-08-05T00:22:01.601Z,17.89
2017-08-05T00:23:01.603Z,17.90
2017-08-05T00:24:01.605Z,17.91
2017-08-05T00:25:01.609Z,17.94
2017-08-05T00:26:01.614Z,17.93
2017-08-05T00:27:01.615Z,17.93
2017-08-05T00:28:01.618Z,17.95
2017-08-05T00:29:01.622Z,17.95
2017-08-05T00:30:01.626Z,17.96
2017-08-05T00:31:01.628Z,17.96
2017-08-05T00:32:01.632Z,17.96
2017-08-05T00:33:01.631Z,17.91
2017-08-05T00:34:01.638Z,17.91
2017-08-05T00:35:01.636Z,17.83
2017-08-05T00:36:01.643Z,17.83
2017-08-05T00:37:01.645Z,17.80
2017-08-05T00:38:01.645Z,17.80
2017-08-05T00:39:01.652Z,17.76
2017-08-05T00:40:01.657Z,17.76
2017-08-05T00:41:01.655Z,17.73
2017-08-05T00:42:01.658Z,17.71
2017-08-05T00:43:01.660Z,17.66
2017-08-05T00:44:01.665Z,17.63
2017-08-05T00:45:01.667Z,17.57
2017-08-05T00:46:01.673Z,17.54
2017-08-05T00:47:01.675Z,17.51
2017-08-05T00:48:01.676Z,17.45
2017-08-05T00:49:01.680Z,17.44
2017-08-05T00:50:01.680Z,17.40
2017-08-05T00:51:01.686Z,17.38
2017-08-05T00:52:01.688Z,17.39
2017-08-05T00:53:01.695Z,17.36
2017-08-05T00:54:01.696Z,17.32
2017-08-05T00:55:01.693Z,17.31
2017-08-05T00:56:01.709Z,17.29
2017-08-05T00:57:01.703Z,17.24
2017-08-05T00:58:01.719Z,17.23
2017-08-05T00:59:01.709Z,17.20
2017-08-05T01:00:01.713Z,17.16
2017-08-05T01:02:33.039Z,17.12
2017-08-05T01:03:14.158Z,17.11
2017-08-05T01:03:45.380Z,17.10
2017-08-05T01:04:12.162Z,17.10
2017-08-05T01:05:59.972Z,17.07
2017-08-05T01:06:41.135Z,17.07
2017-08-05T01:07:11.896Z,17.06
2017-08-05T01:07:38.600Z,17.06
2017-08-05T01:09:04.133Z,17.05
2017-08-05T01:09:45.616Z,17.03
2017-08-05T01:10:16.340Z,17.00
2017-08-05T01:10:53.414Z,17.00
2017-08-05T01:11:59.956Z,16.98
2017-08-05T01:12:41.057Z,16.92
2017-08-05T01:14:04.063Z,16.92
2017-08-05T01:14:45.211Z,16.85
2017-08-05T01:15:15.891Z,16.79
2017-08-05T01:15:42.702Z,16.73
2017-08-05T01:17:59.908Z,16.68
2017-08-05T01:18:40.829Z,16.70
2017-08-05T01:19:11.501Z,16.71
2017-08-05T01:19:58.974Z,16.71
2017-08-05T01:20:33.277Z,16.70
2017-08-05T01:21:14.281Z,16.72
2017-08-05T01:21:45.291Z,16.72
2017-08-05T01:22:12.005Z,16.72
2017-08-05T01:23:59.849Z,16.71
2017-08-05T01:24:40.848Z,16.70
2017-08-05T01:25:11.516Z,16.70
2017-08-05T01:25:38.208Z,16.70
2017-08-05T01:27:04.113Z,16.71
2017-08-05T01:27:45.168Z,16.70
2017-08-05T01:28:15.942Z,16.71
2017-08-05T01:28:52.782Z,16.71
2017-08-05T01:29:59.860Z,16.69
2017-08-05T01:30:40.873Z,16.65
2017-08-05T01:31:11.545Z,16.65
2017-08-05T01:32:33.156Z,16.63
2017-08-05T01:33:14.045Z,16.59
2017-08-05T01:33:44.915Z,16.54
2017-08-05T01:34:21.747Z,16.54
2017-08-05T01:35:39.814Z,16.51
2017-08-05T01:36:21.047Z,16.48
2017-08-05T01:36:51.832Z,16.50
2017-08-05T01:37:39.205Z,16.50
2017-08-05T01:38:33.218Z,16.47
2017-08-05T01:39:14.353Z,16.48
2017-08-05T01:39:45.215Z,16.49
2017-08-05T01:41:40.829Z,16.51
2017-08-05T01:42:22.242Z,16.54
2017-08-05T01:42:52.904Z,16.56
2017-08-05T01:43:29.743Z,16.56
2017-08-05T01:47:18.121Z,16.59
2017-08-05T01:47:59.535Z,16.63
2017-08-05T01:48:30.297Z,16.65
2017-08-05T01:48:56.899Z,16.66
2017-08-05T01:50:40.136Z,16.68
2017-08-05T01:51:21.051Z,16.65
2017-08-05T01:51:51.808Z,16.65
2017-08-05T01:52:18.520Z,16.62
2017-08-05T01:53:48.997Z,16.61
2017-08-05T01:54:29.937Z,16.59
2017-08-05T01:55:00.695Z,16.54
2017-08-05T01:55:27.537Z,16.54
2017-08-05T01:58:21.166Z,16.51
2017-08-05T01:59:02.338Z,16.48
2017-08-05T01:59:33.213Z,16.41
2017-08-05T01:59:59.927Z,16.42
2017-08-05T02:01:49.889Z,16.42
2017-08-05T02:02:30.783Z,16.39
2017-08-05T02:03:01.667Z,16.41
2017-08-05T02:03:28.382Z,16.37
2017-08-05T02:04:01.891Z,16.32
2017-08-05T02:05:01.897Z,16.30
2017-08-05T02:06:01.917Z,16.32
2017-08-05T02:07:01.901Z,16.35
2017-08-05T02:08:01.906Z,16.36
2017-08-05T02:09:01.915Z,16.34
2017-08-05T02:10:01.913Z,16.27
2017-08-05T02:11:01.915Z,16.25
2017-08-05T02:12:01.916Z,16.23
2017-08-05T02:13:01.921Z,16.23
2017-08-05T02:14:01.918Z,16.25
2017-08-05T02:15:01.927Z,16.23
2017-08-05T02:16:01.926Z,16.22
2017-08-05T02:17:01.930Z,16.21
2017-08-05T02:18:01.934Z,16.21
2017-08-05T02:19:01.936Z,16.20
2017-08-05T02:20:01.956Z,16.23
2017-08-05T02:21:01.943Z,16.20
2017-08-05T02:22:01.945Z,16.16
2017-08-05T02:23:01.946Z,16.11
2017-08-05T02:24:01.950Z,16.07
2017-08-05T02:25:01.952Z,16.10
2017-08-05T02:26:01.956Z,16.11
2017-08-05T02:27:01.961Z,16.13
2017-08-05T02:28:01.964Z,16.17
2017-08-05T02:29:01.965Z,16.21
2017-08-05T02:30:01.971Z,16.26
2017-08-05T02:31:01.970Z,16.27
2017-08-05T02:32:01.974Z,16.31
2017-08-05T02:33:01.977Z,16.34
2017-08-05T02:34:01.979Z,16.39
2017-08-05T02:35:01.980Z,16.45
2017-08-05T02:36:01.983Z,16.50
2017-08-05T02:37:01.986Z,16.58
2017-08-05T02:38:01.988Z,16.62
2017-08-05T02:39:01.991Z,16.66
2017-08-05T02:40:01.996Z,16.70
2017-08-05T02:41:02.008Z,16.71
2017-08-05T02:42:01.999Z,16.74
2017-08-05T02:43:02.008Z,16.79
2017-08-05T02:44:02.004Z,16.81
2017-08-05T02:45:02.010Z,16.82
2017-08-05T02:46:02.013Z,16.81
2017-08-05T02:47:02.021Z,16.80
2017-08-05T02:48:02.020Z,16.79
2017-08-05T02:49:02.021Z,16.78
2017-08-05T02:50:02.025Z,16.78
2017-08-05T02:51:02.023Z,16.80
2017-08-05T02:52:02.032Z,16.81
2017-08-05T02:53:02.062Z,16.81
2017-08-05T02:54:02.037Z,16.84
2017-08-05T02:55:02.034Z,16.84
2017-08-05T02:56:02.040Z,16.86
2017-08-05T02:57:02.043Z,16.86
2017-08-05T02:58:02.045Z,16.86
2017-08-05T02:59:02.049Z,16.86
2017-08-05T03:00:02.053Z,16.83
2017-08-05T03:01:02.056Z,16.82
2017-08-05T03:02:02.058Z,16.82
2017-08-05T03:03:02.060Z,16.82
2017-08-05T03:04:02.067Z,16.82
2017-08-05T03:05:02.066Z,16.83
2017-08-05T03:06:02.071Z,16.84
2017-08-05T03:07:02.077Z,16.85
2017-08-05T03:08:02.076Z,16.82
2017-08-05T03:09:02.079Z,16.80
2017-08-05T03:10:02.093Z,16.78
2017-08-05T03:11:02.083Z,16.71
2017-08-05T03:12:02.087Z,16.70
2017-08-05T03:13:02.091Z,16.70
2017-08-05T03:14:02.099Z,16.68
2017-08-05T03:15:02.101Z,16.68
2017-08-05T03:16:02.097Z,16.69
2017-08-05T03:17:02.102Z,16.65
2017-08-05T03:18:02.111Z,16.65
2017-08-05T03:19:02.108Z,16.64
2017-08-05T03:20:02.115Z,16.64
2017-08-05T03:21:02.111Z,16.63
2017-08-05T03:22:02.116Z,16.63
2017-08-05T03:23:02.120Z,16.63
2017-08-05T03:24:02.125Z,16.63
2017-08-05T03:25:02.123Z,16.59
2017-08-05T03:26:02.126Z,16.54
2017-08-05T03:27:02.128Z,16.53
2017-08-05T03:28:02.128Z,16.50
2017-08-05T03:29:02.132Z,16.47
2017-08-05T03:30:02.139Z,16.42
2017-08-05T03:31:02.185Z,16.35
2017-08-05T03:32:02.144Z,16.29
2017-08-05T03:33:02.149Z,16.22
2017-08-05T03:34:02.147Z,16.15
2017-08-05T03:35:02.150Z,16.12
2017-08-05T03:36:02.154Z,16.08
2017-08-05T03:37:02.158Z,16.04
2017-08-05T03:38:02.160Z,16.06
2017-08-05T03:39:02.168Z,16.05
2017-08-05T03:40:02.181Z,15.99
2017-08-05T03:41:02.170Z,15.96
2017-08-05T03:42:02.172Z,15.93
2017-08-05T03:43:02.174Z,15.94
2017-08-05T03:44:02.177Z,15.93
2017-08-05T03:45:02.183Z,15.92
2017-08-05T03:46:02.184Z,15.95
2017-08-05T03:47:04.963Z,15.95
2017-08-05T03:48:37.020Z,15.97
2017-08-05T03:49:18.253Z,16.02
2017-08-05T03:49:49.496Z,16.05
2017-08-05T03:50:16.285Z,16.06
2017-08-05T03:51:02.204Z,16.08
2017-08-05T03:52:02.211Z,16.12
2017-08-05T03:53:02.209Z,16.14
2017-08-05T03:54:02.218Z,16.15
2017-08-05T03:55:02.219Z,16.17
2017-08-05T03:56:02.225Z,16.15
2017-08-05T03:57:02.221Z,16.14
2017-08-05T03:58:02.226Z,16.11
2017-08-05T03:59:02.231Z,16.11
2017-08-05T04:00:02.234Z,16.14
2017-08-05T04:01:02.236Z,16.18
2017-08-05T04:02:02.601Z,16.19
2017-08-05T04:03:02.244Z,16.22
2017-08-05T04:04:02.245Z,16.23
2017-08-05T04:05:02.246Z,16.27
2017-08-05T04:06:02.249Z,16.32
2017-08-05T04:07:02.256Z,16.34
2017-08-05T04:08:02.254Z,16.35
2017-08-05T04:09:02.261Z,16.37
2017-08-05T04:10:02.268Z,16.38
2017-08-05T04:11:02.263Z,16.42
2017-08-05T04:12:02.266Z,16.44
2017-08-05T04:13:02.267Z,16.46
2017-08-05T04:14:02.269Z,16.50
2017-08-05T04:15:02.288Z,16.52
2017-08-05T04:16:02.283Z,16.55
2017-08-05T04:17:02.284Z,16.60
2017-08-05T04:18:02.280Z,16.64
2017-08-05T04:19:02.288Z,16.68
2017-08-05T04:20:02.299Z,16.71
2017-08-05T04:21:02.290Z,16.73
2017-08-05T04:22:02.295Z,16.76
2017-08-05T04:23:02.302Z,16.81
2017-08-05T04:24:02.303Z,16.84
2017-08-05T04:25:02.301Z,16.86
2017-08-05T04:26:02.308Z,16.89
2017-08-05T04:27:02.316Z,16.93
2017-08-05T04:28:02.311Z,16.98
2017-08-05T04:29:02.312Z,17.03
2017-08-05T04:30:02.315Z,17.04
2017-08-05T04:31:02.319Z,17.08
2017-08-05T04:32:02.325Z,17.11
2017-08-05T04:33:02.328Z,17.16
2017-08-05T04:34:02.328Z,17.18
2017-08-05T04:35:02.332Z,17.20
2017-08-05T04:36:02.339Z,17.24
2017-08-05T04:37:02.703Z,17.27
2017-08-05T04:38:02.345Z,17.28
2017-08-05T04:39:02.344Z,17.27
2017-08-05T04:40:02.345Z,17.27
2017-08-05T04:41:02.349Z,17.28
2017-08-05T04:42:02.351Z,17.31
2017-08-05T04:43:02.358Z,17.33
2017-08-05T04:44:02.359Z,17.37
2017-08-05T04:45:02.360Z,17.41
2017-08-05T04:46:02.361Z,17.42
2017-08-05T04:47:02.365Z,17.44
2017-08-05T04:48:02.368Z,17.46
2017-08-05T04:49:02.371Z,17.49
2017-08-05T04:50:02.377Z,17.56
2017-08-05T04:51:02.385Z,17.59
2017-08-05T04:52:02.396Z,17.62
2017-08-05T04:53:02.382Z,17.66
2017-08-05T04:54:02.385Z,17.70
2017-08-05T04:55:02.388Z,17.71
2017-08-05T04:56:02.387Z,17.69
2017-08-05T04:57:02.392Z,17.73
2017-08-05T04:58:02.396Z,17.75
2017-08-05T04:59:02.398Z,17.79
2017-08-05T05:00:02.403Z,17.79
2017-08-05T05:01:02.406Z,17.84
2017-08-05T05:02:02.418Z,17.88
2017-08-05T05:03:02.411Z,17.93
2017-08-05T05:04:02.415Z,17.99
2017-08-05T05:05:02.416Z,18.04
2017-08-05T05:06:02.426Z,18.07
2017-08-05T05:07:02.424Z,18.13
2017-08-05T05:08:02.423Z,18.16
2017-08-05T05:09:02.432Z,18.13
2017-08-05T05:10:02.438Z,18.12
2017-08-05T05:11:02.436Z,18.08
2017-08-05T05:12:02.436Z,18.07
2017-08-05T05:13:02.443Z,18.04
2017-08-05T05:14:02.448Z,18.11
2017-08-05T05:15:02.447Z,18.22
2017-08-05T05:16:02.449Z,18.31
2017-08-05T05:17:02.452Z,18.41
2017-08-05T05:18:02.455Z,18.50
2017-08-05T05:19:02.458Z,18.54
2017-08-05T05:20:02.459Z,18.61
2017-08-05T05:21:02.464Z,18.61
2017-08-05T05:22:02.467Z,18.65
2017-08-05T05:23:02.469Z,18.71
2017-08-05T05:24:02.474Z,18.79
2017-08-05T05:25:02.474Z,18.88
2017-08-05T05:26:02.478Z,18.96
2017-08-05T05:27:02.481Z,18.99
2017-08-05T05:28:02.481Z,19.03
2017-08-05T05:29:02.485Z,19.01
2017-08-05T05:30:02.490Z,19.04
2017-08-05T05:31:02.492Z,18.95
2017-08-05T05:32:02.493Z,18.99
2017-08-05T05:33:02.497Z,19.04
2017-08-05T05:34:02.503Z,19.08
2017-08-05T05:35:02.503Z,19.13
2017-08-05T05:36:02.509Z,19.11
2017-08-05T05:37:02.507Z,19.08
2017-08-05T05:38:02.513Z,19.11
2017-08-05T05:39:02.515Z,19.15
2017-08-05T05:40:02.524Z,19.16
2017-08-05T05:41:02.518Z,19.25
2017-08-05T05:42:02.523Z,19.28
2017-08-05T05:43:02.527Z,19.37
2017-08-05T05:44:02.528Z,19.47
2017-08-05T05:45:02.536Z,19.61
2017-08-05T05:46:02.534Z,19.69
2017-08-05T05:47:02.538Z,19.79
2017-08-05T05:48:02.540Z,19.85
2017-08-05T05:49:02.549Z,19.89
2017-08-05T05:50:02.546Z,19.93
2017-08-05T05:51:02.548Z,20.00
2017-08-05T05:52:02.552Z,20.06
2017-08-05T05:53:02.555Z,20.08
2017-08-05T05:54:02.563Z,20.11
2017-08-05T05:55:02.558Z,20.16
2017-08-05T05:56:02.560Z,20.14
2017-08-05T05:57:02.567Z,20.21
2017-08-05T05:58:02.573Z,20.29
2017-08-05T05:59:02.572Z,20.39
2017-08-05T06:00:02.578Z,20.46
2017-08-05T06:01:02.574Z,20.53
2017-08-05T06:02:02.581Z,20.61
2017-08-05T06:03:02.584Z,20.63
2017-08-05T06:04:02.584Z,20.65
2017-08-05T06:05:02.587Z,20.71
2017-08-05T06:06:02.594Z,20.71
2017-08-05T06:07:02.593Z,20.70
2017-08-05T06:08:02.594Z,20.70
2017-08-05T06:09:02.599Z,20.71
2017-08-05T06:10:02.603Z,20.70
2017-08-05T06:11:02.610Z,20.76
2017-08-05T06:12:02.626Z,20.84
2017-08-05T06:13:02.612Z,20.85
2017-08-05T06:14:02.617Z,20.81
2017-08-05T06:15:02.621Z,20.85
2017-08-05T06:16:02.646Z,20.85
2017-08-05T06:17:02.626Z,20.91
2017-08-05T06:18:02.625Z,20.91
2017-08-05T06:19:02.628Z,20.92
2017-08-05T06:20:02.630Z,20.97
2017-08-05T06:21:02.643Z,21.02
2017-08-05T06:22:02.636Z,20.99
2017-08-05T06:23:02.640Z,21.02
2017-08-05T06:24:02.639Z,21.06
2017-08-05T06:25:02.646Z,21.12
2017-08-05T06:26:02.657Z,21.18
2017-08-05T06:27:02.647Z,21.23
2017-08-05T06:28:02.655Z,21.22
2017-08-05T06:29:02.656Z,21.29
2017-08-05T06:30:02.662Z,21.38
2017-08-05T06:31:02.661Z,21.40
2017-08-05T06:32:02.668Z,21.36
2017-08-05T06:33:02.667Z,21.31
2017-08-05T06:34:02.672Z,21.32
2017-08-05T06:35:02.673Z,21.34
2017-08-05T06:36:02.676Z,21.34
2017-08-05T06:37:02.682Z,21.37
2017-08-05T06:38:02.743Z,21.40
2017-08-05T06:39:02.685Z,21.40
2017-08-05T06:40:02.691Z,21.37
2017-08-05T06:41:02.697Z,21.41
2017-08-05T06:42:02.712Z,21.41
2017-08-05T06:43:02.703Z,21.46
2017-08-05T06:44:02.700Z,21.46
2017-08-05T06:45:02.702Z,21.41
2017-08-05T06:46:02.709Z,21.49
2017-08-05T06:47:02.711Z,21.52
2017-08-05T06:48:02.729Z,21.53
2017-08-05T06:49:02.714Z,21.58
2017-08-05T06:50:02.741Z,21.61
2017-08-05T06:51:02.729Z,21.56
2017-08-05T06:52:02.725Z,21.62
2017-08-05T06:53:02.758Z,21.74
2017-08-05T06:54:02.742Z,21.82
2017-08-05T06:55:02.729Z,21.87
2017-08-05T06:56:02.742Z,21.94
2017-08-05T06:57:02.739Z,21.92
2017-08-05T06:58:02.742Z,21.90
2017-08-05T06:59:02.739Z,21.90
2017-08-05T07:00:02.751Z,21.91
2017-08-05T07:01:02.747Z,21.92
2017-08-05T07:02:02.750Z,22.02
2017-08-05T07:03:02.751Z,22.04
2017-08-05T07:04:02.756Z,22.04
2017-08-05T07:05:02.756Z,22.07
2017-08-05T07:06:02.765Z,22.17
2017-08-05T07:07:02.761Z,22.25
2017-08-05T07:08:02.769Z,22.20
2017-08-05T07:09:02.774Z,22.25
2017-08-05T07:10:02.768Z,22.32
2017-08-05T07:11:02.780Z,22.40
2017-08-05T07:12:03.142Z,22.53
2017-08-05T07:13:02.784Z,22.66
2017-08-05T07:14:02.791Z,22.83
2017-08-05T07:15:02.793Z,22.96
2017-08-05T07:16:02.821Z,23.08
2017-08-05T07:17:02.838Z,23.13
2017-08-05T07:18:02.806Z,23.13
2017-08-05T07:19:02.797Z,23.15
2017-08-05T07:20:02.825Z,23.23
2017-08-05T07:21:02.814Z,23.26
2017-08-05T07:22:02.819Z,23.30
2017-08-05T07:23:02.810Z,23.41
2017-08-05T07:24:02.830Z,23.48
2017-08-05T07:25:02.826Z,23.52
2017-08-05T07:26:02.826Z,23.53
2017-08-05T07:27:02.828Z,23.54
2017-08-05T07:28:02.824Z,23.59
2017-08-05T07:29:02.825Z,23.64
2017-08-05T07:30:02.830Z,23.74
2017-08-05T07:31:02.833Z,23.80
2017-08-05T07:32:02.876Z,23.86
2017-08-05T07:33:02.858Z,23.94
2017-08-05T07:34:02.841Z,23.97
2017-08-05T07:35:02.854Z,24.03
2017-08-05T07:36:03.401Z,24.11
2017-08-05T07:37:02.859Z,24.23
2017-08-05T07:38:02.875Z,24.30
2017-08-05T07:39:02.888Z,24.30
2017-08-05T07:40:02.859Z,24.29
2017-08-05T07:41:02.871Z,24.41
2017-08-05T07:42:03.268Z,24.46
2017-08-05T07:43:02.871Z,24.49
2017-08-05T07:44:02.867Z,24.52
2017-08-05T07:45:02.874Z,24.52
2017-08-05T07:46:02.986Z,24.46
2017-08-05T07:47:02.877Z,24.45
2017-08-05T07:48:02.883Z,24.50
2017-08-05T07:49:02.885Z,24.56
2017-08-05T07:50:02.886Z,24.55
2017-08-05T07:51:02.890Z,24.48
2017-08-05T07:52:02.971Z,24.47
2017-08-05T07:53:02.897Z,24.54
2017-08-05T07:54:02.896Z,24.46
2017-08-05T07:55:02.897Z,24.48
2017-08-05T07:56:02.900Z,24.48
2017-08-05T07:57:02.908Z,24.56
2017-08-05T07:58:02.910Z,24.60
2017-08-05T07:59:02.910Z,24.76
2017-08-05T08:00:02.908Z,24.65
2017-08-05T08:01:02.928Z,24.44
2017-08-05T08:02:02.916Z,24.21
2017-08-05T08:03:02.919Z,24.05
2017-08-05T08:04:02.945Z,23.97
2017-08-05T08:05:02.990Z,24.09
2017-08-05T08:06:02.924Z,24.32
2017-08-05T08:07:02.933Z,24.59
2017-08-05T08:08:02.947Z,24.76
2017-08-05T08:09:02.940Z,24.94
2017-08-05T08:10:02.941Z,25.17
2017-08-05T08:11:02.944Z,25.31
2017-08-05T08:12:02.942Z,25.35
2017-08-05T08:13:02.953Z,25.48
2017-08-05T08:14:02.952Z,25.57
2017-08-05T08:15:04.810Z,25.70
2017-08-05T08:16:02.975Z,25.67
2017-08-05T08:17:02.969Z,25.60
2017-08-05T08:18:02.976Z,25.69
2017-08-05T08:19:03.021Z,25.85
2017-08-05T08:20:02.978Z,26.03
2017-08-05T08:21:03.091Z,26.14
2017-08-05T08:22:02.984Z,26.28
2017-08-05T08:23:02.983Z,26.36
2017-08-05T08:24:02.994Z,26.43
2017-08-05T08:25:02.994Z,26.48
2017-08-05T08:26:03.013Z,26.65
2017-08-05T08:27:03.039Z,26.84
2017-08-05T08:28:03.077Z,26.98
2017-08-05T08:29:03.015Z,26.94
2017-08-05T08:30:03.027Z,26.90
2017-08-05T08:31:03.112Z,26.74
2017-08-05T08:32:03.005Z,26.46
2017-08-05T08:33:03.035Z,26.42
2017-08-05T08:34:03.009Z,26.38
2017-08-05T08:35:03.053Z,26.35
2017-08-05T08:36:03.011Z,26.29
2017-08-05T08:37:03.016Z,26.19
2017-08-05T08:38:03.021Z,25.84
2017-08-05T08:39:03.019Z,25.47
2017-08-05T08:40:03.023Z,25.45
2017-08-05T08:41:03.061Z,25.44
2017-08-05T08:42:03.071Z,25.46
2017-08-05T08:43:03.168Z,25.35
2017-08-05T08:44:03.051Z,25.39
2017-08-05T08:45:03.474Z,25.39
2017-08-05T08:46:03.091Z,25.33
2017-08-05T08:47:03.066Z,25.29
2017-08-05T08:48:03.053Z,25.16
2017-08-05T08:49:03.054Z,25.14
2017-08-05T08:50:03.070Z,25.03
2017-08-05T08:51:03.055Z,25.05
2017-08-05T08:52:03.086Z,25.10
2017-08-05T08:53:03.075Z,25.15
2017-08-05T08:54:03.154Z,25.20
2017-08-05T08:55:03.124Z,25.26
2017-08-05T08:56:03.184Z,25.31
2017-08-05T08:57:03.104Z,25.43
2017-08-05T08:58:03.089Z,25.73
2017-08-05T08:59:03.086Z,26.14
2017-08-05T09:00:03.156Z,26.32
2017-08-05T09:01:03.085Z,26.42
2017-08-05T09:02:03.085Z,26.37
2017-08-05T09:03:03.092Z,26.49
2017-08-05T09:04:03.095Z,26.44
2017-08-05T09:05:03.157Z,26.30
2017-08-05T09:06:03.104Z,26.12
2017-08-05T09:07:03.102Z,25.99
2017-08-05T09:08:03.107Z,25.90
2017-08-05T09:09:03.106Z,25.75
2017-08-05T09:10:03.106Z,25.45
2017-08-05T09:11:03.116Z,25.36
2017-08-05T09:12:03.165Z,25.27
2017-08-05T09:13:03.119Z,25.24
2017-08-05T09:14:03.123Z,25.33
2017-08-05T09:15:03.127Z,25.38
2017-08-05T09:16:03.145Z,25.29
2017-08-05T09:17:03.131Z,25.23
2017-08-05T09:18:03.130Z,25.27
2017-08-05T09:19:03.138Z,25.29
2017-08-05T09:20:03.155Z,25.22
2017-08-05T09:21:03.164Z,25.23
2017-08-05T09:22:03.175Z,25.26
2017-08-05T09:23:03.143Z,25.27
2017-08-05T09:24:03.150Z,25.30
2017-08-05T09:25:03.158Z,25.30
2017-08-05T09:26:03.160Z,25.32
2017-08-05T09:27:03.155Z,25.37
2017-08-05T09:28:03.166Z,25.39
2017-08-05T09:29:03.173Z,25.45
2017-08-05T09:30:03.168Z,25.52
2017-08-05T09:31:03.178Z,25.80
2017-08-05T09:32:03.171Z,26.08
2017-08-05T09:33:03.175Z,26.70
2017-08-05T09:34:03.181Z,27.49
2017-08-05T09:35:03.188Z,28.30
2017-08-05T09:36:03.184Z,28.52
2017-08-05T09:37:03.197Z,28.97
2017-08-05T09:38:03.190Z,29.08
2017-08-05T09:39:03.193Z,29.05
2017-08-05T09:40:03.196Z,28.65
2017-08-05T09:41:03.199Z,28.65
2017-08-05T09:42:03.213Z,28.74
2017-08-05T09:43:03.206Z,28.56
2017-08-05T09:44:03.208Z,28.44
2017-08-05T09:45:03.215Z,28.57
2017-08-05T09:46:03.214Z,28.75
2017-08-05T09:47:03.219Z,29.09
2017-08-05T09:48:03.219Z,29.63
2017-08-05T09:49:03.227Z,30.27
2017-08-05T09:50:03.262Z,31.01
2017-08-05T09:51:03.231Z,31.49
2017-08-05T09:52:03.233Z,31.69
2017-08-05T09:53:03.233Z,31.98
2017-08-05T09:54:03.255Z,32.25
2017-08-05T09:55:03.238Z,32.57
2017-08-05T09:56:03.244Z,32.36
2017-08-05T09:57:03.244Z,31.98
2017-08-05T09:58:03.249Z,31.57
2017-08-05T09:59:03.247Z,31.25
2017-08-05T10:00:03.254Z,31.50
2017-08-05T10:01:03.257Z,31.19
2017-08-05T10:02:03.263Z,31.73
2017-08-05T10:03:03.263Z,31.95
2017-08-05T10:04:03.267Z,32.21
2017-08-05T10:05:03.273Z,32.57
2017-08-05T10:06:03.272Z,32.47
2017-08-05T10:07:03.280Z,32.43
2017-08-05T10:08:03.276Z,32.38
2017-08-05T10:09:03.303Z,32.59
2017-08-05T10:10:03.302Z,32.40
2017-08-05T10:11:03.284Z,32.40
2017-08-05T10:12:03.295Z,32.39
2017-08-05T10:13:03.293Z,32.43
2017-08-05T10:14:03.300Z,32.43
2017-08-05T10:15:03.304Z,32.61
2017-08-05T10:16:03.300Z,32.34
2017-08-05T10:17:03.303Z,31.99
2017-08-05T10:18:03.305Z,31.70
2017-08-05T10:19:03.312Z,31.48
2017-08-05T10:20:03.317Z,31.35
2017-08-05T10:21:03.328Z,31.88
2017-08-05T10:22:03.332Z,32.23
2017-08-05T10:23:03.319Z,31.90
2017-08-05T10:24:03.327Z,31.70
2017-08-05T10:25:03.326Z,30.94
2017-08-05T10:26:03.331Z,30.88
2017-08-05T10:27:03.332Z,31.31
2017-08-05T10:28:03.339Z,31.29
2017-08-05T10:29:03.356Z,30.75
2017-08-05T10:30:03.341Z,30.28
2017-08-05T10:31:03.348Z,30.47
2017-08-05T10:32:03.346Z,30.33
2017-08-05T10:33:03.347Z,30.15
2017-08-05T10:34:03.357Z,29.80
2017-08-05T10:35:03.355Z,29.27
2017-08-05T10:36:03.358Z,28.88
2017-08-05T10:37:03.364Z,28.55
2017-08-05T10:38:03.362Z,28.65
2017-08-05T10:39:03.364Z,29.15
2017-08-05T10:40:03.371Z,29.31
2017-08-05T10:41:03.381Z,29.74
2017-08-05T10:42:03.374Z,30.21
2017-08-05T10:43:03.382Z,30.29
2017-08-05T10:44:03.379Z,30.60
2017-08-05T10:45:03.384Z,30.70
2017-08-05T10:46:03.391Z,31.20
2017-08-05T10:47:03.390Z,31.77
2017-08-05T10:48:03.393Z,32.11
2017-08-05T10:49:03.397Z,31.96
2017-08-05T10:50:03.403Z,32.12
2017-08-05T10:51:03.402Z,32.55
2017-08-05T10:52:03.406Z,32.58
2017-08-05T10:53:03.410Z,31.86
2017-08-05T10:54:03.408Z,31.17
2017-08-05T10:55:03.416Z,30.91
2017-08-05T10:56:03.413Z,30.90
2017-08-05T10:57:03.421Z,31.23
2017-08-05T10:58:03.444Z,31.49
2017-08-05T10:59:03.481Z,31.64
2017-08-05T11:00:03.434Z,31.88
2017-08-05T11:01:03.434Z,32.00
2017-08-05T11:02:03.440Z,32.45
2017-08-05T11:03:03.442Z,32.73
2017-08-05T11:04:03.437Z,32.80
2017-08-05T11:05:03.440Z,32.89
2017-08-05T11:06:03.447Z,32.83
2017-08-05T11:07:03.447Z,32.42
2017-08-05T11:08:03.447Z,32.13
2017-08-05T11:09:03.455Z,31.84
2017-08-05T11:10:03.464Z,32.07
2017-08-05T11:11:03.459Z,32.21
2017-08-05T11:12:03.468Z,32.64
2017-08-05T11:13:03.467Z,32.61
2017-08-05T11:14:03.472Z,32.83
2017-08-05T11:15:03.473Z,32.82
2017-08-05T11:16:03.491Z,32.96
2017-08-05T11:17:03.479Z,32.98
2017-08-05T11:18:03.492Z,32.89
2017-08-05T11:19:03.500Z,32.43
2017-08-05T11:20:03.489Z,32.03
2017-08-05T11:21:03.493Z,31.85
2017-08-05T11:22:03.494Z,32.07
2017-08-05T11:23:03.507Z,32.48
2017-08-05T11:24:03.516Z,32.67
2017-08-05T11:25:03.525Z,32.15
2017-08-05T11:26:03.509Z,32.06
2017-08-05T11:27:03.517Z,32.40
2017-08-05T11:28:03.560Z,32.65
2017-08-05T11:29:03.544Z,33.13
2017-08-05T11:30:03.515Z,33.50
2017-08-05T11:31:03.526Z,33.51
2017-08-05T11:32:03.523Z,33.08
2017-08-05T11:33:03.543Z,33.07
2017-08-05T11:34:03.533Z,33.06
2017-08-05T11:35:03.621Z,33.27
2017-08-05T11:36:03.534Z,33.44
2017-08-05T11:37:03.539Z,33.74
2017-08-05T11:38:03.552Z,34.02
2017-08-05T11:39:03.544Z,34.26
2017-08-05T11:40:03.547Z,33.96
2017-08-05T11:41:03.560Z,33.66
2017-08-05T11:42:03.556Z,33.71
2017-08-05T11:43:03.554Z,33.74
2017-08-05T11:44:03.555Z,33.74
2017-08-05T11:45:03.577Z,33.97
2017-08-05T11:46:03.565Z,34.00
2017-08-05T11:47:03.594Z,33.48
2017-08-05T11:48:03.570Z,33.19
2017-08-05T11:49:03.589Z,32.52
2017-08-05T11:50:03.580Z,32.00
2017-08-05T11:51:03.573Z,32.13
2017-08-05T11:52:03.576Z,32.40
2017-08-05T11:53:03.626Z,32.59
2017-08-05T11:54:03.594Z,32.68
2017-08-05T11:55:03.645Z,32.58
2017-08-05T11:56:03.595Z,32.58
2017-08-05T11:57:03.596Z,32.42
2017-08-05T11:58:03.609Z,32.43
2017-08-05T11:59:03.624Z,32.45
2017-08-05T12:00:03.611Z,31.68
2017-08-05T12:01:03.640Z,30.96
2017-08-05T12:02:03.638Z,30.39
2017-08-05T12:03:03.632Z,30.18
2017-08-05T12:04:03.616Z,30.27
2017-08-05T12:05:03.616Z,30.43
2017-08-05T12:06:03.629Z,30.70
2017-08-05T12:07:03.625Z,30.95
2017-08-05T12:08:03.624Z,31.17
2017-08-05T12:09:03.644Z,30.87
2017-08-05T12:10:03.629Z,30.74
2017-08-05T12:11:03.668Z,30.87
2017-08-05T12:12:03.643Z,30.88
2017-08-05T12:13:03.643Z,30.63
2017-08-05T12:14:03.644Z,30.29
2017-08-05T12:15:03.646Z,30.05
2017-08-05T12:16:03.650Z,29.79
2017-08-05T12:17:03.651Z,29.89
2017-08-05T12:18:03.663Z,29.80
2017-08-05T12:19:03.660Z,29.74
2017-08-05T12:20:03.686Z,29.87
2017-08-05T12:21:03.661Z,30.10
2017-08-05T12:22:03.723Z,30.28
2017-08-05T12:23:03.669Z,30.54
2017-08-05T12:23:51.129Z,30.54
2017-08-05T12:24:22.155Z,30.67
2017-08-05T12:25:03.815Z,30.73
2017-08-05T12:26:03.682Z,30.67
2017-08-05T12:27:03.685Z,30.34
2017-08-05T12:28:03.685Z,29.92
2017-08-05T12:29:03.687Z,29.43
2017-08-05T12:30:03.731Z,29.06
2017-08-05T12:31:03.698Z,28.80
2017-08-05T12:32:03.698Z,28.60
2017-08-05T12:33:03.701Z,28.41
2017-08-05T12:34:03.702Z,28.36
2017-08-05T12:35:03.714Z,28.37
2017-08-05T12:36:03.706Z,28.40
2017-08-05T12:37:03.709Z,28.33
2017-08-05T12:38:03.717Z,28.20
2017-08-05T12:39:03.731Z,28.13
2017-08-05T12:40:03.719Z,27.98
2017-08-05T12:41:03.723Z,27.95